Relevés horaires Bierset (Belgique)


Relevés horaires à Bierset - Mardi 23 Juin 2020
Heure UTC1 Température [°C] Vent [km/h] Hum. [%] Pres.4 [hPa] Visi. [Km] Nébu. [octa] Préc.5 [mm] Cond.
2m. Res. Ros. Dir.2 Vit. Moy. Raf.3
23:00 20.8 20.8 11.2 E 3.7 5.6 16.7 54 1023.1(0.0/3h) 30 1/8 -- --
22:00 20.8 20.8 11.4 ENE 5.6 5.6 7.4 55 1023.4(0.3/3h) 30 1/8 -- --
21:00 21.8 21.8 11.5 ENE 3.7 9.3 14.8 52 1023.2(0.2/3h) 28 1/8 -- --
20:00 22.2 22.2 11.0 NE 7.4 7.4 11.1 49 1023.1(-0.3/3h) 28 1/8 -- --
19:00 23.7 23.7 10.5 NE 7.4 9.3 14.8 43 1023(-0.5/3h) 25 1/8 -- --
18:00 24.7 24.7 10.7 NE 9.3 9.3 16.7 41 1022.9(-1.0/3h) 25 1/8 0/12h
--
17:00 25.4 25.4 11.0 NNE 9.3 9.3 14.8 40 1023.2(-1.0/3h) 20 1/8 -- --
16:00 25.8 25.8 11.5 N 7.4 9.3 13.0 41 1023.3(-1.1/3h) 20 1/8 -- --
15:00 25.9 25.9 11.4 NNE 5.6 9.3 16.7 40 1023.7(-1.2/3h) 25 1/8 -- --
14:00 25.2 25.2 11.3 NE 5.6 7.4 16.7 42 1024.2(-0.9/3h) 25 1/8 -- --
13:00 25.3 25.3 11.1 N 7.4 7.4 13.0 41 1024.5(-0.6/3h) 25 1/8 -- --
12:00 24.1 24.1 10.6 N 5.6 7.4 18.5 43 1025.1(-0.4/3h) 25 1/8 0/6h
--
11:00 23.8 23.8 11.0 N 3.7 5.6 13.0 45 1025.3(-0.4/3h) 15 1/8 -- --
10:00 23.1 23.1 9.7 NNO 1.9 3.7 7.4 43 1025.3(-0.3/3h) 15 2/8 -- --
09:00 22.4 22.4 10.3 SE 1.9 5.6 18.5 46 1025.6(0.0/3h) 15 2/8 -- --
08:00 21.1 21.1 11.3 ESE 3.7 3.7 5.6 54 1025.8(0.4/3h) 15 2/8 -- --
07:00 18.7 18.7 12.1 SE 3.7 5.6 18.5 65 1025.9(0.3/3h) 15 1/8 -- --
06:00 15.7 15.7 11.6 SE 5.6 7.4 20.4 77 1026.1(-0.2/3h) 15 1/8 0/12h
--
05:00 13.7 13.5 11.9 SE 7.4 7.4 7.4 89 1026(-0.3/3h) 15 0/8 -- --
04:00 13.1 13.1 11.3 SE 5.6 5.6 14.8 89 1026(-0.1/3h) 15 0/8 -- --
03:00 13.6 13.6 11.4 SSE 5.6 5.6 20.4 87 1026.1(0.0/3h) 30 0/8 -- --
02:00 14.6 14.6 10.0 ENE 1.9 1.9 3.7 74 1026.2(-0.2/3h) 30 0/8 -- --
01:00 14.6 14.6 11.1 NNO 0.0 1.9 1.9 80 1026(-0.2/3h) 30 0/8 -- --
00:00 15.5 15.5 11.8 NNO 1.9 3.7 7.4 79 1025.9(-0.2/3h) 30 0/8 0/6h
0/24h
--

1 Coordinated Universal Time. Actuellement il est 11:00 locale et 10:00 UTC.

2 Le vent souffle depuis la direction indiquée vers la direction oposée.

3 Les rafales max. sont disponible 40 min après l'heure du relevé.

4 Pour les stations d'altitude (plus de 600m) le géopotentiel du niveau le plus proche de la pression obligatoire est indiqué.

5 Les stations disposant d'un diffuseur peuvent indiquer "trace". Cela signifie que des précipitations ont touchés le sol mais que la quantité est inférieure à 0.1 mm.

Récapitulatif de la journée
Température [°C] Vent [km/h] Ensoleillement4 [h] Precipitations totale5 [mm] Pression [Hpa]
Min1 Max.2 Moy.3 Max. Min Max.
13.0 26.3 6.4 20.4 0 h 0 min 0 1022.9 1026.2

1 Température minimale relevée entre 18:00 UTC la veille et 18:00 UTC le jour donné.

2 Température maximale relevée entre 06:00 UTC le jour donné et 06:00 UTC le lendemain.

3 Vent moyen de la journée basé sur les relevés horaires.

4 Ensoleillement en heures relevé entre 06:00 UTC la veille et 06:00 UTC le jour donné.

5 Précipitations totales tombées entre 06:00 UTC la jour donné et 06:00 UTC le lendemain.

Graphiques horaires